Time;durP1;ratioP1;P1;durP2;ratioP2;P2;SDS_P1;SDS_P2;PMS_P1;PMS_P2;Temp;Humidity;BMP_temperature;BMP_pressure;BME280_temperature;BME280_humidity;BME280_pressure;Samples;Min_cycle;Max_cycle;Signal;HPM_P1;HPM_P2
2022/07/17 00:00:43;;;;;;;8.35;6.00;;;;;;;10.79;100.00;93907.34;2133035;27;20030;-77
2022/07/17 00:01:45;;;;;;;13.48;6.70;;;;;;;10.88;100.00;93909.53;2133353;27;20779;-76
2022/07/17 00:02:47;;;;;;;12.43;7.72;;;;;;;10.78;100.00;93905.06;2123158;27;20042;-77
2022/07/17 00:03:48;;;;;;;14.93;8.65;;;;;;;10.86;100.00;93908.44;2120675;27;20579;-76
2022/07/17 00:04:49;;;;;;;12.38;8.80;;;;;;;10.76;100.00;93907.41;2130931;27;20038;-77
2022/07/17 00:05:51;;;;;;;12.20;9.70;;;;;;;10.75;100.00;93911.19;2129988;27;20035;-76
2022/07/17 00:06:52;;;;;;;12.23;9.77;;;;;;;10.77;100.00;93912.34;2132578;27;20038;-76
2022/07/17 00:07:53;;;;;;;14.93;10.68;;;;;;;10.78;100.00;93907.75;2130971;27;21047;-77
2022/07/17 00:08:53;;;;;;;13.32;10.18;;;;;;;10.73;100.00;93908.19;2131947;27;20061;-78
2022/07/17 00:09:54;;;;;;;16.33;10.40;;;;;;;10.76;100.00;93908.16;2130975;27;20053;-77
2022/07/17 00:10:55;;;;;;;14.30;10.82;;;;;;;10.85;100.00;93913.03;2131941;27;20500;-77
2022/07/17 00:11:56;;;;;;;13.90;11.30;;;;;;;10.85;100.00;93910.34;2119823;27;20082;-80
2022/07/17 00:12:58;;;;;;;16.92;10.82;;;;;;;10.73;100.00;93908.94;2114219;27;20031;-78
2022/07/17 00:13:59;;;;;;;15.93;11.43;;;;;;;10.74;100.00;93915.03;2121551;27;20034;-77
2022/07/17 00:15:02;;;;;;;17.80;11.88;;;;;;;10.77;100.00;93908.91;2122684;27;20126;-78
2022/07/17 00:16:03;;;;;;;16.25;10.40;;;;;;;10.63;100.00;93909.03;2123785;27;20038;-76
2022/07/17 00:17:05;;;;;;;16.05;10.63;;;;;;;10.69;100.00;93910.13;2122592;27;20110;-77
2022/07/17 00:18:09;;;;;;;14.95;10.55;;;;;;;10.70;100.00;93911.63;2123848;27;20033;-77
2022/07/17 00:19:10;;;;;;;11.65;9.85;;;;;;;10.70;100.00;93909.72;2123769;27;20054;-78
2022/07/17 00:20:11;;;;;;;13.63;9.90;;;;;;;10.59;100.00;93914.41;2121453;27;20606;-77
2022/07/17 00:21:12;;;;;;;12.15;9.25;;;;;;;10.48;100.00;93903.81;2122079;27;20056;-79
2022/07/17 00:22:13;;;;;;;11.65;9.27;;;;;;;10.56;100.00;93909.84;2121061;27;20027;-77
2022/07/17 00:23:14;;;;;;;15.93;10.50;;;;;;;10.59;100.00;93901.81;2122604;27;20030;-79
2022/07/17 00:24:19;;;;;;;17.90;10.60;;;;;;;10.51;100.00;93904.94;2112751;27;20102;-78
2022/07/17 00:25:22;;;;;;;11.05;9.60;;;;;;;10.44;100.00;93910.34;2114244;27;20035;-78
2022/07/17 00:26:23;;;;;;;13.38;10.45;;;;;;;10.46;100.00;93910.72;2121141;27;20632;-78
2022/07/17 00:27:24;;;;;;;18.98;11.35;;;;;;;10.52;100.00;93904.53;2122867;27;20038;-76
2022/07/17 00:28:25;;;;;;;15.05;11.13;;;;;;;10.64;100.00;93910.56;2125129;27;20034;-77
2022/07/17 00:29:26;;;;;;;19.35;11.15;;;;;;;10.65;100.00;93909.41;2123209;27;20031;-78
2022/07/17 00:30:27;;;;;;;17.80;10.25;;;;;;;10.65;100.00;93910.16;2114607;27;20168;-77
2022/07/17 00:31:28;;;;;;;14.88;10.98;;;;;;;10.69;100.00;93904.78;2114629;27;20043;-76
2022/07/17 00:32:29;;;;;;;15.57;11.38;;;;;;;10.57;100.00;93909.44;2121684;27;20708;-77
2022/07/17 00:33:30;;;;;;;22.58;11.85;;;;;;;10.56;100.00;93901.84;2124535;27;20091;-77
2022/07/17 00:34:32;;;;;;;16.95;10.63;;;;;;;10.57;100.00;93912.13;2123375;27;20069;-77
2022/07/17 00:35:33;;;;;;;14.65;9.40;;;;;;;10.56;100.00;93899.91;2121824;27;20053;-76
2022/07/17 00:36:34;;;;;;;10.93;9.20;;;;;;;10.55;100.00;93909.09;2122816;27;20519;-77
2022/07/17 00:37:44;;;;;;;11.35;8.85;;;;;;;10.47;100.00;93904.97;2123595;27;20084;-78
2022/07/17 00:38:44;;;;;;;12.88;8.65;;;;;;;10.48;100.00;93906.47;2122351;27;20596;-78
2022/07/17 00:39:46;;;;;;;13.55;9.02;;;;;;;10.45;100.00;93901.19;2121878;27;20077;-79
2022/07/17 00:40:47;;;;;;;12.27;8.70;;;;;;;10.42;100.00;93910.75;2124728;27;20034;-77
2022/07/17 00:41:50;;;;;;;9.48;8.38;;;;;;;10.37;100.00;93916.50;2123118;27;20552;-76
2022/07/17 00:42:51;;;;;;;9.23;8.07;;;;;;;10.26;100.00;93905.13;2122087;27;20042;-76
2022/07/17 00:43:52;;;;;;;11.25;8.68;;;;;;;10.38;100.00;93906.56;2121155;27;20054;-77
2022/07/17 00:44:53;;;;;;;12.57;8.35;;;;;;;10.35;100.00;93908.13;2122725;27;20156;-77
2022/07/17 00:45:56;;;;;;;16.05;9.18;;;;;;;10.40;100.00;93904.25;2122665;27;20026;-77
2022/07/17 00:46:57;;;;;;;10.60;8.65;;;;;;;10.53;100.00;93902.63;2121700;27;20050;-75
2022/07/17 00:48:09;;;;;;;9.70;8.40;;;;;;;10.59;100.00;93903.72;2122618;27;20050;-75
2022/07/17 00:49:10;;;;;;;9.57;8.60;;;;;;;10.46;100.00;93900.03;2122993;27;20034;-76
2022/07/17 00:50:11;;;;;;;12.90;8.55;;;;;;;10.31;100.00;93910.81;2123370;27;20657;-75
2022/07/17 00:51:12;;;;;;;14.02;9.23;;;;;;;10.25;100.00;93908.97;2120215;27;20127;-77
2022/07/17 00:52:14;;;;;;;11.88;8.55;;;;;;;10.23;100.00;93906.66;2124859;27;20034;-78
2022/07/17 00:53:15;;;;;;;12.55;8.90;;;;;;;10.34;100.00;93903.94;2123409;27;20027;-74
2022/07/17 00:54:19;;;;;;;12.68;8.82;;;;;;;10.36;100.00;93896.28;2123853;27;20094;-75
2022/07/17 00:55:22;;;;;;;11.52;8.98;;;;;;;10.15;100.00;93902.53;2122714;27;20819;-77
2022/07/17 00:56:23;;;;;;;10.82;8.07;;;;;;;10.28;100.00;93906.28;2123020;27;20521;-75
2022/07/17 00:57:26;;;;;;;11.35;8.68;;;;;;;10.32;100.00;93904.34;2121842;27;20038;-74
2022/07/17 00:58:29;;;;;;;11.98;8.85;;;;;;;10.29;100.00;93899.78;2122438;27;20101;-73
2022/07/17 00:59:32;;;;;;;8.50;7.60;;;;;;;10.27;100.00;93906.66;2122986;27;20023;-75
2022/07/17 01:00:35;;;;;;;13.35;7.88;;;;;;;10.19;100.00;93902.50;2122426;27;20035;-75
2022/07/17 01:01:35;;;;;;;12.65;8.43;;;;;;;10.21;100.00;93900.94;2122264;27;20095;-74
2022/07/17 01:02:37;;;;;;;12.02;8.80;;;;;;;10.14;100.00;93901.00;2121895;27;20077;-74
2022/07/17 01:03:38;;;;;;;11.63;8.32;;;;;;;10.22;100.00;93899.03;2122565;27;20042;-77
2022/07/17 01:04:40;;;;;;;13.70;8.50;;;;;;;10.16;100.00;93900.63;2122016;27;20028;-75
2022/07/17 01:05:41;;;;;;;13.40;9.13;;;;;;;10.24;100.00;93896.75;2119827;27;20392;-74
2022/07/17 01:06:42;;;;;;;11.98;8.90;;;;;;;10.12;100.00;93899.88;2122024;27;20027;-76
2022/07/17 01:07:44;;;;;;;14.10;9.43;;;;;;;10.19;100.00;93905.94;2121991;27;20033;-74
2022/07/17 01:08:45;;;;;;;21.83;10.02;;;;;;;10.12;100.00;93905.22;2121943;27;20022;-75
2022/07/17 01:09:47;;;;;;;12.73;10.02;;;;;;;10.12;100.00;93902.53;2121979;27;20428;-77
2022/07/17 01:10:47;;;;;;;12.50;9.82;;;;;;;10.09;100.00;93898.75;2121300;27;20042;-78
2022/07/17 01:11:49;;;;;;;12.35;9.88;;;;;;;10.18;100.00;93904.41;2121411;27;20070;-77
2022/07/17 01:12:50;;;;;;;13.80;9.82;;;;;;;9.99;100.00;93897.66;2120311;27;20035;-78
2022/07/17 01:13:51;;;;;;;15.50;9.75;;;;;;;9.99;100.00;93902.25;2123319;27;20065;-78
2022/07/17 01:14:52;;;;;;;12.38;9.35;;;;;;;9.96;100.00;93905.69;2131506;27;20459;-77
2022/07/17 01:15:54;;;;;;;14.13;9.88;;;;;;;10.02;100.00;93904.16;2132040;27;20033;-77
2022/07/17 01:16:55;;;;;;;13.93;9.73;;;;;;;10.04;100.00;93905.25;2130822;27;20037;-78
2022/07/17 01:17:57;;;;;;;11.32;9.65;;;;;;;10.02;100.00;93904.91;2131942;27;20451;-78
2022/07/17 01:18:58;;;;;;;11.18;10.07;;;;;;;9.97;100.00;93901.91;2129784;27;20105;-78
2022/07/17 01:20:01;;;;;;;12.52;10.05;;;;;;;9.97;100.00;93902.66;2122386;27;20114;-77
2022/07/17 01:21:07;;;;;;;13.00;10.15;;;;;;;9.86;100.00;93907.28;2121106;27;20031;-74
2022/07/17 01:22:08;;;;;;;13.02;10.57;;;;;;;9.83;100.00;93902.72;2122588;27;20035;-76
2022/07/17 01:23:09;;;;;;;14.57;9.98;;;;;;;9.93;100.00;93901.16;2113445;27;20027;-73
2022/07/17 01:24:11;;;;;;;16.02;10.75;;;;;;;9.92;100.00;93900.41;2120535;27;20045;-79
2022/07/17 01:25:14;;;;;;;14.13;10.25;;;;;;;9.89;100.00;93901.19;2121898;27;20018;-76
2022/07/17 01:26:15;;;;;;;13.63;9.93;;;;;;;9.86;100.00;93898.53;2123402;27;20046;-76
2022/07/17 01:27:16;;;;;;;10.52;9.07;;;;;;;9.90;100.00;93894.69;2138566;27;20046;-74
2022/07/17 01:28:16;;;;;;;12.25;9.07;;;;;;;9.88;100.00;93893.53;2135357;27;20082;-75
2022/07/17 01:29:17;;;;;;;13.77;10.02;;;;;;;9.88;100.00;93894.31;2135402;27;20034;-78
2022/07/17 01:30:18;;;;;;;15.40;10.40;;;;;;;9.77;100.00;93896.28;2133458;27;20022;-75
2022/07/17 01:31:19;;;;;;;14.75;10.32;;;;;;;9.84;100.00;93897.00;2132187;27;20058;-74
2022/07/17 01:32:31;;;;;;;14.68;10.20;;;;;;;9.83;100.00;93895.50;2131455;27;20121;-75
2022/07/17 01:33:32;;;;;;;14.70;10.57;;;;;;;9.94;100.00;93898.09;2130545;27;20091;-76
2022/07/17 01:34:33;;;;;;;12.98;10.20;;;;;;;9.93;100.00;93896.56;2130593;27;20125;-76
2022/07/17 01:35:34;;;;;;;13.93;10.35;;;;;;;9.93;100.00;93893.91;2131051;27;20460;-78
2022/07/17 01:36:36;;;;;;;12.48;9.40;;;;;;;9.86;100.00;93893.19;2130032;27;20109;-76
2022/07/17 01:37:38;;;;;;;11.60;8.60;;;;;;;9.68;100.00;93893.28;2130785;27;20041;-76
2022/07/17 01:38:39;;;;;;;11.02;8.50;;;;;;;9.75;100.00;93898.59;2119807;27;20028;-75
2022/07/17 01:39:53;;;;;;;9.50;8.07;;;;;;;9.71;100.00;93892.53;2121281;27;20027;-75
2022/07/17 01:40:54;;;;;;;9.73;7.30;;;;;;;9.88;100.00;93894.31;2131548;27;20030;-75
2022/07/17 01:41:54;;;;;;;9.25;7.57;;;;;;;9.80;100.00;93884.84;2130243;27;20034;-77
2022/07/17 01:42:55;;;;;;;12.90;6.97;;;;;;;9.87;100.00;93886.69;2130700;27;20474;-78
2022/07/17 01:43:57;;;;;;;11.77;6.65;;;;;;;9.83;100.00;93889.38;2132292;27;20033;-75
2022/07/17 01:44:58;;;;;;;7.00;6.03;;;;;;;9.80;100.00;93890.94;2130689;27;20036;-75
2022/07/17 01:45:59;;;;;;;14.30;6.10;;;;;;;9.79;100.00;93892.09;2131311;27;20057;-73
2022/07/17 01:47:00;;;;;;;9.02;5.22;;;;;;;9.75;100.00;93894.03;2129393;27;20097;-75
2022/07/17 01:48:01;;;;;;;5.85;5.28;;;;;;;9.67;100.00;93897.13;2131157;27;20034;-74
2022/07/17 01:49:02;;;;;;;6.78;5.25;;;;;;;9.72;100.00;93894.78;2131289;27;20036;-74
2022/07/17 01:50:04;;;;;;;8.93;4.93;;;;;;;9.68;100.00;93902.06;2130226;27;20776;-75
2022/07/17 01:51:06;;;;;;;6.72;5.28;;;;;;;9.82;100.00;93893.19;2132321;27;20078;-75
2022/07/17 01:52:08;;;;;;;8.75;4.75;;;;;;;9.81;100.00;93897.03;2128450;27;20940;-79
2022/07/17 01:53:09;;;;;;;5.85;5.30;;;;;;;9.82;100.00;93891.28;2122377;27;20023;-77
2022/07/17 01:54:09;;;;;;;6.88;5.03;;;;;;;9.87;100.00;93892.78;2121123;27;20047;-75
2022/07/17 01:55:15;;;;;;;5.70;5.03;;;;;;;9.84;100.00;93893.59;2130848;27;20108;-75
2022/07/17 01:56:16;;;;;;;7.00;5.30;;;;;;;9.82;100.00;93893.19;2121896;27;20118;-75
2022/07/17 01:57:17;;;;;;;7.70;5.20;;;;;;;9.89;100.00;93892.41;2123133;27;20552;-75
2022/07/17 01:58:18;;;;;;;6.75;5.40;;;;;;;9.95;100.00;93891.59;2131508;27;20077;-78
2022/07/17 01:59:19;;;;;;;6.55;5.75;;;;;;;9.90;100.00;93892.00;2132060;27;20026;-76
2022/07/17 02:00:23;;;;;;;15.57;6.35;;;;;;;9.84;100.00;93894.34;2128574;27;20046;-77
2022/07/17 02:01:24;;;;;;;8.13;5.65;;;;;;;9.69;100.00;93902.81;2131879;27;20030;-78
2022/07/17 02:02:25;;;;;;;7.75;5.75;;;;;;;9.76;100.00;93894.78;2133365;27;20106;-77
2022/07/17 02:03:29;;;;;;;8.07;5.88;;;;;;;9.63;100.00;93897.13;2132093;27;20864;-76
2022/07/17 02:04:32;;;;;;;11.73;5.80;;;;;;;9.67;100.00;93894.44;2131892;27;20124;-76
2022/07/17 02:05:33;;;;;;;9.00;5.25;;;;;;;9.64;100.00;93887.97;2133569;27;20480;-78
2022/07/17 02:06:34;;;;;;;11.23;6.07;;;;;;;9.66;100.00;93892.91;2132256;27;20026;-78
2022/07/17 02:07:39;;;;;;;7.63;6.75;;;;;;;9.62;100.00;93889.53;2127914;27;20037;-77
2022/07/17 02:08:41;;;;;;;9.20;5.88;;;;;;;9.66;100.00;93892.91;2121792;27;20315;-78
2022/07/17 02:09:42;;;;;;;7.53;5.88;;;;;;;9.70;100.00;93885.63;2122875;27;20015;-75
2022/07/17 02:10:43;;;;;;;7.50;6.40;;;;;;;9.70;100.00;93893.66;2129515;27;20053;-74
2022/07/17 02:11:44;;;;;;;7.72;6.60;;;;;;;9.69;100.00;93900.91;2129671;27;20487;-75
2022/07/17 02:14:22;;;;;;;;;;;;;;;9.61;100.00;93896.75;2136151;27;20551;-76
2022/07/17 02:15:23;;;;;;;9.13;6.88;;;;;;;9.71;100.00;93887.19;2129618;27;20390;-78
2022/07/17 02:16:24;;;;;;;10.18;7.22;;;;;;;9.69;100.00;93900.16;2117994;27;20589;-77
2022/07/17 02:17:26;;;;;;;10.88;7.95;;;;;;;9.66;100.00;93887.56;2110150;28;20059;-78
2022/07/17 02:18:27;;;;;;;10.52;8.27;;;;;;;9.53;100.00;93892.63;2119203;27;20031;-78
2022/07/17 02:19:28;;;;;;;10.30;8.48;;;;;;;9.57;100.00;93890.69;2127940;27;20019;-76
2022/07/17 02:20:29;;;;;;;14.20;8.45;;;;;;;9.50;100.00;93888.81;2126915;27;20042;-80
2022/07/17 02:21:30;;;;;;;10.70;7.75;;;;;;;9.49;100.00;93891.88;2126793;27;20030;-79
2022/07/17 02:22:31;;;;;;;8.70;7.60;;;;;;;9.49;100.00;93887.31;2128198;27;20054;-78
2022/07/17 02:23:32;;;;;;;15.52;7.50;;;;;;;9.40;100.00;93886.97;2119288;27;20051;-77
2022/07/17 02:24:35;;;;;;;10.60;7.32;;;;;;;9.52;100.00;93886.50;2120209;27;20043;-78
2022/07/17 02:25:35;;;;;;;11.52;7.65;;;;;;;9.47;100.00;93886.91;2117669;27;20023;-79
2022/07/17 02:26:37;;;;;;;9.25;7.75;;;;;;;9.41;100.00;93888.47;2120923;27;20035;-76
2022/07/17 02:27:40;;;;;;;10.98;7.47;;;;;;;9.50;100.00;93891.47;2129900;27;20034;-78
2022/07/17 02:28:41;;;;;;;9.75;7.15;;;;;;;9.52;100.00;93888.41;2130636;27;20588;-75
2022/07/17 02:29:41;;;;;;;10.60;7.13;;;;;;;9.47;100.00;93889.59;2130383;27;20038;-76
2022/07/17 02:30:42;;;;;;;7.35;6.60;;;;;;;9.41;100.00;93890.38;2129446;27;20114;-75
2022/07/17 02:31:43;;;;;;;8.88;6.80;;;;;;;9.41;100.00;93896.47;2120356;27;20167;-79
2022/07/17 02:32:45;;;;;;;8.70;6.25;;;;;;;9.44;100.00;93894.94;2120771;27;20030;-78
2022/07/17 02:33:46;;;;;;;14.52;7.10;;;;;;;9.39;100.00;93888.09;2130110;27;20033;-77
2022/07/17 02:34:47;;;;;;;12.60;7.05;;;;;;;9.47;100.00;93896.84;2129752;27;20440;-77
2022/07/17 02:35:48;;;;;;;10.43;6.88;;;;;;;9.50;100.00;93894.16;2127832;27;20027;-78
2022/07/17 02:36:49;;;;;;;11.98;7.57;;;;;;;9.45;100.00;93885.81;2130280;27;20035;-78
2022/07/17 02:37:50;;;;;;;11.10;6.68;;;;;;;9.42;100.00;93897.25;2120783;27;20357;-78
2022/07/17 02:38:53;;;;;;;10.63;6.93;;;;;;;9.30;100.00;93893.09;2120721;27;20023;-77
2022/07/17 02:39:54;;;;;;;8.38;6.70;;;;;;;9.20;100.00;93889.31;2129817;27;20030;-77
2022/07/17 02:40:54;;;;;;;11.00;6.45;;;;;;;9.22;100.00;93894.25;2130510;27;20064;-77
2022/07/17 02:41:55;;;;;;;7.97;6.60;;;;;;;9.29;100.00;93888.91;2130343;27;20031;-78
2022/07/17 02:42:56;;;;;;;11.43;7.90;;;;;;;9.28;100.00;93890.81;2129812;27;20018;-76
2022/07/17 02:43:57;;;;;;;8.75;6.40;;;;;;;9.29;100.00;93883.56;2129216;27;20023;-78
2022/07/17 02:44:59;;;;;;;8.38;6.95;;;;;;;9.30;100.00;93890.44;2130220;27;20023;-77
2022/07/17 02:46:00;;;;;;;10.63;7.22;;;;;;;9.26;100.00;93885.13;2129406;27;20454;-78
2022/07/17 02:47:02;;;;;;;13.02;8.57;;;;;;;9.20;100.00;93886.66;2130317;27;20110;-78
2022/07/17 02:48:03;;;;;;;12.93;8.77;;;;;;;9.16;100.00;93888.56;2129934;27;20030;-77
2022/07/17 02:49:04;;;;;;;14.35;9.48;;;;;;;9.19;100.00;93884.38;2130137;27;20035;-79
2022/07/17 02:50:07;;;;;;;16.55;10.25;;;;;;;9.22;100.00;93886.25;2129244;27;20463;-78
2022/07/17 02:51:09;;;;;;;14.60;10.48;;;;;;;9.24;100.00;93886.66;2120832;27;20384;-77
2022/07/17 02:52:10;;;;;;;16.50;10.32;;;;;;;9.23;100.00;93879.81;2121024;27;20130;-76
2022/07/17 02:53:11;;;;;;;12.93;10.05;;;;;;;9.04;100.00;93881.78;2121027;27;20032;-77
2022/07/17 02:54:12;;;;;;;14.07;10.32;;;;;;;8.97;100.00;93887.13;2120266;27;20050;-77
2022/07/17 02:55:13;;;;;;;15.27;10.35;;;;;;;9.09;100.00;93877.94;2129014;27;20042;-78
2022/07/17 02:56:14;;;;;;;17.10;11.43;;;;;;;9.05;100.00;93877.97;2130037;27;20027;-76
2022/07/17 02:57:15;;;;;;;16.60;11.32;;;;;;;9.17;100.00;93878.66;2130614;27;20058;-79
2022/07/17 02:58:16;;;;;;;15.52;10.93;;;;;;;9.19;100.00;93881.72;2120388;27;20030;-79
2022/07/17 02:59:17;;;;;;;14.27;10.25;;;;;;;9.14;100.00;93890.13;2121225;27;20031;-77
2022/07/17 03:00:20;;;;;;;15.38;10.00;;;;;;;9.08;100.00;93887.84;2128035;27;20031;-77
2022/07/17 03:01:21;;;;;;;14.27;9.68;;;;;;;8.95;100.00;93881.41;2129530;27;20118;-78
2022/07/17 03:02:22;;;;;;;15.20;9.70;;;;;;;8.96;100.00;93885.63;2129936;27;20027;-77
2022/07/17 03:03:24;;;;;;;15.02;9.07;;;;;;;9.07;100.00;93885.56;2129572;27;20092;-79
2022/07/17 03:04:25;;;;;;;13.60;9.45;;;;;;;9.13;100.00;93877.91;2121286;27;20028;-78
2022/07/17 03:05:26;;;;;;;14.00;9.02;;;;;;;9.15;100.00;93881.72;2120471;27;20609;-77
2022/07/17 03:06:26;;;;;;;12.90;8.10;;;;;;;9.04;100.00;93876.44;2120907;27;20511;-78
2022/07/17 03:07:27;;;;;;;9.63;7.72;;;;;;;9.04;100.00;93886.34;2120105;27;20106;-76
2022/07/17 03:08:28;;;;;;;10.80;7.40;;;;;;;9.09;100.00;93883.28;2130152;27;20548;-77
2022/07/17 03:09:30;;;;;;;8.57;6.85;;;;;;;9.01;100.00;93874.53;2131090;27;20094;-77
2022/07/17 03:10:31;;;;;;;15.65;6.85;;;;;;;9.01;100.00;93881.78;2132950;27;20066;-77
2022/07/17 03:11:32;;;;;;;17.90;6.88;;;;;;;9.03;100.00;93882.91;2131289;27;20472;-78
2022/07/17 03:12:33;;;;;;;9.15;6.28;;;;;;;8.99;100.00;93879.50;2131625;27;20043;-78
2022/07/17 03:13:34;;;;;;;8.85;5.95;;;;;;;8.98;100.00;93880.66;2129701;27;20035;-77
2022/07/17 03:14:35;;;;;;;10.02;6.32;;;;;;;9.06;100.00;93878.72;2120157;28;20034;-78
2022/07/17 03:15:36;;;;;;;9.40;5.68;;;;;;;9.08;100.00;93871.84;2112540;28;20094;-78
2022/07/17 03:16:37;;;;;;;12.35;5.70;;;;;;;8.96;100.00;93874.94;2121095;27;20613;-77
2022/07/17 03:17:39;;;;;;;7.47;6.10;;;;;;;8.91;100.00;93891.34;2128561;27;20119;-77
2022/07/17 03:18:40;;;;;;;10.23;5.85;;;;;;;8.93;100.00;93872.28;2129808;27;20018;-77
2022/07/17 03:19:41;;;;;;;12.45;5.40;;;;;;;8.80;100.00;93874.63;2130100;27;20037;-76
2022/07/17 03:20:42;;;;;;;7.32;5.20;;;;;;;8.94;100.00;93873.81;2128248;27;20049;-78
2022/07/17 03:21:43;;;;;;;6.38;5.55;;;;;;;8.90;100.00;93879.16;2130039;27;20033;-79
2022/07/17 03:22:44;;;;;;;6.93;5.45;;;;;;;8.92;100.00;93871.53;2128975;27;20037;-78
2022/07/17 03:23:45;;;;;;;8.57;5.28;;;;;;;9.02;100.00;93878.72;2129747;27;20027;-79
2022/07/17 03:24:46;;;;;;;8.45;5.53;;;;;;;9.11;100.00;93877.56;2130147;27;20475;-77
2022/07/17 03:25:48;;;;;;;7.90;5.38;;;;;;;9.01;100.00;93874.53;2123628;27;20072;-78
2022/07/17 03:26:49;;;;;;;8.45;5.20;;;;;;;8.88;100.00;93875.34;2123014;27;20425;-78
2022/07/17 03:27:50;;;;;;;6.07;5.05;;;;;;;8.82;100.00;93874.97;2124105;27;20027;-78
2022/07/17 03:28:51;;;;;;;6.20;4.97;;;;;;;8.81;100.00;93870.78;2122847;27;20028;-78
2022/07/17 03:29:54;;;;;;;9.65;5.05;;;;;;;8.92;100.00;93870.78;2114832;27;20528;-77
2022/07/17 03:30:55;;;;;;;7.03;5.00;;;;;;;8.85;100.00;93871.53;2113310;27;20485;-77
2022/07/17 03:31:56;;;;;;;7.55;5.28;;;;;;;8.88;100.00;93868.13;2114947;27;20031;-78
2022/07/17 03:32:57;;;;;;;7.47;5.28;;;;;;;8.86;100.00;93870.38;2115136;27;20416;-79
2022/07/17 03:33:58;;;;;;;6.60;5.10;;;;;;;8.78;100.00;93872.34;2123280;27;20138;-77
2022/07/17 03:35:01;;;;;;;6.00;4.65;;;;;;;8.79;100.00;93871.19;2114975;27;20041;-78
2022/07/17 03:36:02;;;;;;;6.07;4.90;;;;;;;8.86;100.00;93873.06;2106776;28;20401;-78
2022/07/17 03:37:04;;;;;;;7.22;4.85;;;;;;;8.89;100.00;93872.28;2113826;27;20102;-77
2022/07/17 03:38:05;;;;;;;8.93;4.75;;;;;;;8.93;100.00;93870.38;2123355;27;20038;-78
2022/07/17 03:39:06;;;;;;;7.85;4.40;;;;;;;8.94;100.00;93869.22;2123865;27;20480;-78
2022/07/17 03:40:08;;;;;;;7.65;4.85;;;;;;;8.88;100.00;93867.34;2124267;27;20489;-78
2022/07/17 03:41:09;;;;;;;7.00;4.70;;;;;;;8.82;100.00;93867.75;2113189;27;20105;-77
2022/07/17 03:42:10;;;;;;;5.35;4.60;;;;;;;8.78;100.00;93866.22;2106138;28;20031;-78
2022/07/17 03:43:11;;;;;;;7.95;4.88;;;;;;;8.78;100.00;93864.34;2114077;27;20019;-78
2022/07/17 03:44:11;;;;;;;6.53;5.00;;;;;;;8.68;100.00;93870.44;2126103;27;20116;-77
2022/07/17 03:45:12;;;;;;;6.18;5.00;;;;;;;8.78;100.00;93867.00;2126445;27;20027;-77
2022/07/17 03:46:13;;;;;;;5.78;4.93;;;;;;;8.73;100.00;93867.38;2124491;27;20062;-76
2022/07/17 03:47:14;;;;;;;7.45;4.80;;;;;;;8.69;100.00;93864.00;2123826;27;20034;-77
2022/07/17 03:48:16;;;;;;;6.65;4.80;;;;;;;8.71;100.00;93867.00;2123524;27;20035;-76
2022/07/17 03:49:17;;;;;;;6.50;4.70;;;;;;;8.66;100.00;93866.66;2115231;27;20024;-76
2022/07/17 03:50:18;;;;;;;8.00;4.97;;;;;;;8.71;100.00;93871.59;2114296;27;20372;-76
2022/07/17 03:51:19;;;;;;;7.55;4.95;;;;;;;8.67;100.00;93868.94;2115513;27;20178;-77
2022/07/17 03:52:20;;;;;;;8.57;5.05;;;;;;;8.77;100.00;93872.69;2114258;27;20032;-77
2022/07/17 03:53:21;;;;;;;7.45;4.50;;;;;;;8.73;100.00;93874.63;2115364;27;20027;-77
2022/07/17 03:54:22;;;;;;;6.88;4.50;;;;;;;8.75;100.00;93870.44;2114743;27;20034;-77
2022/07/17 03:55:22;;;;;;;7.10;4.60;;;;;;;8.65;100.00;93873.09;2124079;27;20039;-77
2022/07/17 03:56:23;;;;;;;5.68;4.63;;;;;;;8.68;100.00;93870.44;2123468;27;20135;-76
2022/07/17 03:57:24;;;;;;;9.32;4.60;;;;;;;8.74;100.00;93871.59;2123731;27;20035;-76
2022/07/17 03:58:25;;;;;;;9.70;5.05;;;;;;;8.79;100.00;93878.44;2124704;27;20046;-77
2022/07/17 03:59:27;;;;;;;10.18;5.00;;;;;;;8.81;100.00;93868.13;2124052;27;20106;-76
2022/07/17 04:00:28;;;;;;;7.53;4.70;;;;;;;8.85;100.00;93876.88;2123484;27;20540;-78
2022/07/17 04:01:29;;;;;;;6.05;4.63;;;;;;;8.74;100.00;93873.50;2122951;27;20031;-78
2022/07/17 04:02:30;;;;;;;6.57;5.05;;;;;;;8.78;100.00;93876.88;2113402;28;20020;-77
2022/07/17 04:03:31;;;;;;;8.98;5.15;;;;;;;8.66;100.00;93879.97;2114862;27;20066;-77
2022/07/17 04:04:32;;;;;;;6.82;4.55;;;;;;;8.68;100.00;93875.00;2123658;27;20034;-77
2022/07/17 04:05:33;;;;;;;4.53;4.13;;;;;;;8.62;100.00;93873.91;2123557;27;20819;-78
2022/07/17 04:06:34;;;;;;;6.30;4.70;;;;;;;8.70;100.00;93876.16;2122590;27;20027;-77
2022/07/17 04:07:39;;;;;;;6.25;4.32;;;;;;;8.78;100.00;93877.66;2124089;27;20058;-77
2022/07/17 04:08:40;;;;;;;6.53;4.68;;;;;;;8.79;100.00;93883.75;2113501;27;20076;-76
2022/07/17 04:09:41;;;;;;;5.05;4.40;;;;;;;8.83;100.00;93873.84;2105593;28;20035;-78
2022/07/17 04:10:42;;;;;;;8.20;4.57;;;;;;;8.86;100.00;93874.97;2114666;27;20026;-77
2022/07/17 04:11:43;;;;;;;6.72;4.32;;;;;;;8.81;100.00;93878.78;2122396;27;20046;-76
2022/07/17 04:12:44;;;;;;;5.13;4.57;;;;;;;8.81;100.00;93876.88;2123908;27;20403;-77
2022/07/17 04:13:45;;;;;;;8.15;4.55;;;;;;;8.78;100.00;93882.22;2113525;27;20051;-78
2022/07/17 04:14:46;;;;;;;6.18;4.80;;;;;;;8.78;100.00;93883.00;2114152;27;20043;-79
2022/07/17 04:15:52;;;;;;;6.82;4.05;;;;;;;8.75;100.00;93877.69;2123263;27;20486;-77
2022/07/17 04:16:53;;;;;;;5.30;4.43;;;;;;;8.87;100.00;93885.25;2123833;27;20035;-77
2022/07/17 04:17:54;;;;;;;6.18;4.35;;;;;;;8.92;100.00;93882.19;2123014;27;20027;-76
2022/07/17 04:18:55;;;;;;;6.80;4.65;;;;;;;8.90;100.00;93884.47;2126053;27;20432;-77
2022/07/17 04:19:56;;;;;;;6.10;4.68;;;;;;;8.88;100.00;93892.09;2126288;27;20027;-77
2022/07/17 04:20:59;;;;;;;8.32;4.78;;;;;;;8.83;100.00;93885.28;2125429;27;20030;-78
2022/07/17 04:22:00;;;;;;;6.70;4.55;;;;;;;8.90;100.00;93884.47;2124393;27;20027;-78
2022/07/17 04:23:01;;;;;;;5.80;4.63;;;;;;;8.89;100.00;93879.53;2124505;27;20026;-76
2022/07/17 04:24:03;;;;;;;6.40;4.20;;;;;;;8.88;100.00;93888.69;2123556;27;20018;-78
2022/07/17 04:25:04;;;;;;;4.90;4.40;;;;;;;8.93;100.00;93878.38;2104142;28;20025;-77
2022/07/17 04:26:06;;;;;;;6.65;4.47;;;;;;;8.98;100.00;93887.88;2097550;28;20370;-77
2022/07/17 04:27:08;;;;;;;6.05;4.57;;;;;;;8.90;100.00;93887.13;2114839;27;20027;-78
2022/07/17 04:28:11;;;;;;;5.43;4.35;;;;;;;8.98;100.00;93875.31;2115524;27;20052;-79
2022/07/17 04:29:12;;;;;;;7.70;4.93;;;;;;;9.02;100.00;93880.63;2114724;27;20023;-78
2022/07/17 04:30:13;;;;;;;5.50;4.47;;;;;;;8.98;100.00;93883.31;2113857;27;20122;-78
2022/07/17 04:31:14;;;;;;;6.43;4.38;;;;;;;9.00;100.00;93877.59;2113094;28;20035;-76
2022/07/17 04:32:15;;;;;;;7.18;4.20;;;;;;;9.07;100.00;93882.91;2123709;27;20034;-77
2022/07/17 04:33:18;;;;;;;5.05;4.47;;;;;;;9.16;100.00;93882.47;2114709;27;20457;-78
2022/07/17 04:34:19;;;;;;;7.63;4.68;;;;;;;9.12;100.00;93881.75;2112802;27;20028;-77
2022/07/17 04:35:20;;;;;;;4.65;4.25;;;;;;;9.21;100.00;93884.75;2123228;27;20039;-79
2022/07/17 04:36:21;;;;;;;7.70;4.25;;;;;;;9.20;100.00;93884.00;2113790;27;20484;-77
2022/07/17 04:37:22;;;;;;;6.60;4.47;;;;;;;9.22;100.00;93887.03;2113707;27;20032;-77
2022/07/17 04:38:22;;;;;;;7.90;4.95;;;;;;;9.26;100.00;93881.69;2123754;27;20394;-78
2022/07/17 04:39:24;;;;;;;4.30;3.90;;;;;;;9.31;100.00;93883.97;2121578;27;20118;-77
2022/07/17 04:40:25;;;;;;;7.15;4.60;;;;;;;9.30;100.00;93885.84;2113944;27;20027;-78
2022/07/17 04:41:26;;;;;;;5.32;4.13;;;;;;;9.28;100.00;93882.06;2112979;27;20413;-77
2022/07/17 04:42:27;;;;;;;7.63;4.45;;;;;;;9.36;100.00;93875.53;2122482;27;20038;-78
2022/07/17 04:43:28;;;;;;;4.85;4.35;;;;;;;9.28;100.00;93882.06;2112946;27;20032;-78
2022/07/17 04:44:28;;;;;;;5.65;5.05;;;;;;;9.28;100.00;93879.41;2103894;28;20039;-79
2022/07/17 04:45:30;;;;;;;5.53;4.75;;;;;;;9.37;100.00;93876.31;2104644;28;20054;-78
2022/07/17 04:46:31;;;;;;;8.02;4.90;;;;;;;9.43;100.00;93883.50;2113069;28;20106;-78
2022/07/17 04:47:34;;;;;;;5.53;4.25;;;;;;;9.36;100.00;93877.47;2122357;27;20027;-78
2022/07/17 04:48:36;;;;;;;5.50;4.38;;;;;;;9.43;100.00;93878.16;2121576;27;20030;-78